createdAt,value
2023-02-24T00:01:19.377Z,24.83
2023-02-24T00:03:48.924Z,22.88
2023-02-24T00:06:18.606Z,23.00
2023-02-24T00:08:48.741Z,20.98
2023-02-24T00:11:20.104Z,21.10
2023-02-24T00:13:49.691Z,24.35
2023-02-24T00:16:21.220Z,22.23
2023-02-24T00:18:51.379Z,23.20
2023-02-24T00:21:21.555Z,23.83
2023-02-24T00:23:53.716Z,19.92
2023-02-24T00:26:23.749Z,21.52
2023-02-24T00:28:53.712Z,22.23
2023-02-24T00:31:25.871Z,20.63
2023-02-24T00:33:57.151Z,22.42
2023-02-24T00:36:28.244Z,22.02
2023-02-24T00:38:58.988Z,22.20
2023-02-24T00:41:30.782Z,22.73
2023-02-24T00:44:06.275Z,23.20
2023-02-24T00:46:39.577Z,20.30
2023-02-24T00:49:17.366Z,24.13
2023-02-24T00:51:49.309Z,25.63
2023-02-24T00:54:19.165Z,24.23
2023-02-24T00:56:50.792Z,23.10
2023-02-24T00:59:23.251Z,22.63
2023-02-24T01:01:55.094Z,23.42
2023-02-24T01:04:24.606Z,22.52
2023-02-24T01:07:00.610Z,22.92
2023-02-24T01:09:32.169Z,23.55
2023-02-24T01:12:33.902Z,20.15
2023-02-24T01:15:05.380Z,21.60
2023-02-24T01:17:38.079Z,20.75
2023-02-24T01:20:16.154Z,21.58
2023-02-24T01:22:47.527Z,21.55
2023-02-24T01:27:46.501Z,20.55
2023-02-24T01:30:17.871Z,21.08
2023-02-24T01:32:49.477Z,21.15
2023-02-24T01:35:19.263Z,19.63
2023-02-24T01:37:49.563Z,20.70
2023-02-24T01:40:21.977Z,22.00
2023-02-24T01:42:52.450Z,22.40
2023-02-24T01:45:26.422Z,20.23
2023-02-24T01:48:01.570Z,21.63
2023-02-24T01:50:33.233Z,23.30
2023-02-24T01:53:06.530Z,21.92
2023-02-24T01:55:38.878Z,23.90
2023-02-24T01:58:13.110Z,22.27
2023-02-24T02:00:47.428Z,20.95
2023-02-24T02:03:26.756Z,22.50
2023-02-24T02:06:01.428Z,23.80
2023-02-24T02:08:31.912Z,23.25
2023-02-24T02:11:07.015Z,21.50
2023-02-24T02:13:38.504Z,21.77
2023-02-24T02:16:33.801Z,21.23
2023-02-24T02:19:28.634Z,20.95
2023-02-24T02:22:08.775Z,21.50
2023-02-24T02:24:54.343Z,20.35
2023-02-24T02:28:09.084Z,21.88
2023-02-24T02:31:17.170Z,21.45
2023-02-24T02:34:16.276Z,21.20
2023-02-24T02:36:57.478Z,21.63
2023-02-24T02:39:35.502Z,19.00
2023-02-24T02:42:15.209Z,17.08
2023-02-24T02:44:56.296Z,18.63
2023-02-24T02:47:33.146Z,20.30
2023-02-24T02:50:10.940Z,17.70
2023-02-24T02:52:44.761Z,17.45
2023-02-24T02:55:18.987Z,16.27
2023-02-24T02:57:52.098Z,16.80
2023-02-24T03:00:25.312Z,16.40
2023-02-24T03:02:59.469Z,14.55
2023-02-24T03:05:34.307Z,15.35
2023-02-24T03:08:10.233Z,14.27
2023-02-24T03:10:41.942Z,14.52
2023-02-24T03:13:14.346Z,12.82
2023-02-24T03:15:46.221Z,12.50
2023-02-24T03:18:21.377Z,12.05
2023-02-24T03:20:57.298Z,11.30
2023-02-24T03:23:31.272Z,10.30
2023-02-24T03:26:06.380Z,12.40
2023-02-24T03:28:40.649Z,9.88
2023-02-24T03:31:12.481Z,10.80
2023-02-24T03:33:46.768Z,11.20
2023-02-24T03:36:17.643Z,10.52
2023-02-24T03:38:49.788Z,9.45
2023-02-24T03:41:19.892Z,10.13
2023-02-24T03:43:51.869Z,8.30
2023-02-24T03:46:21.329Z,7.80
2023-02-24T03:48:56.430Z,7.85
2023-02-24T03:51:27.980Z,7.88
2023-02-24T03:54:05.920Z,7.57
2023-02-24T03:56:47.433Z,7.93
2023-02-24T03:59:30.611Z,8.23
2023-02-24T04:02:06.913Z,6.43
2023-02-24T04:04:41.898Z,5.32
2023-02-24T04:07:16.707Z,5.57
2023-02-24T04:09:52.017Z,5.50
2023-02-24T04:12:28.278Z,5.60
2023-02-24T04:15:05.028Z,5.32
2023-02-24T04:17:41.191Z,5.57
2023-02-24T04:20:16.013Z,4.20
2023-02-24T04:22:50.628Z,4.40
2023-02-24T04:25:25.064Z,4.63
2023-02-24T04:27:56.839Z,4.07
2023-02-24T04:30:29.994Z,3.88
2023-02-24T04:32:59.491Z,5.18
2023-02-24T04:35:29.861Z,4.55
2023-02-24T04:38:00.854Z,3.65
2023-02-24T04:40:30.653Z,3.63
2023-02-24T04:42:59.983Z,3.65
2023-02-24T04:45:32.249Z,2.88
2023-02-24T04:48:03.460Z,3.15
2023-02-24T04:50:35.581Z,3.83
2023-02-24T04:53:09.790Z,3.65
2023-02-24T04:55:41.511Z,3.33
2023-02-24T04:58:13.280Z,3.45
2023-02-24T05:00:43.965Z,3.00
2023-02-24T05:03:15.423Z,3.35
2023-02-24T05:05:52.219Z,3.00
2023-02-24T05:08:23.004Z,3.08
2023-02-24T05:10:53.868Z,2.78
2023-02-24T05:13:27.494Z,2.75
2023-02-24T05:15:58.105Z,2.70
2023-02-24T05:18:30.532Z,2.90
2023-02-24T05:21:23.221Z,1.98
2023-02-24T05:23:55.086Z,2.25
2023-02-24T05:26:26.428Z,2.10
2023-02-24T05:28:59.922Z,2.05
2023-02-24T05:31:31.546Z,2.83
2023-02-24T05:34:03.061Z,2.25
2023-02-24T05:36:36.602Z,4.82
2023-02-24T05:39:08.375Z,2.72
2023-02-24T05:41:42.070Z,2.20
2023-02-24T05:44:14.030Z,3.03
2023-02-24T05:46:45.604Z,2.38
2023-02-24T05:49:17.968Z,2.55
2023-02-24T05:51:55.235Z,1.92
2023-02-24T05:54:29.773Z,3.58
2023-02-24T05:57:02.042Z,2.28
2023-02-24T05:59:33.374Z,2.05
2023-02-24T06:02:07.797Z,2.40
2023-02-24T06:04:46.074Z,2.83
2023-02-24T06:07:19.727Z,2.78
2023-02-24T06:09:54.120Z,1.75
2023-02-24T06:12:27.608Z,1.98
2023-02-24T06:14:58.404Z,2.78
2023-02-24T06:17:29.257Z,2.20
2023-02-24T06:19:58.989Z,2.67
2023-02-24T06:22:29.275Z,2.28
2023-02-24T06:25:00.235Z,1.95
2023-02-24T06:27:30.103Z,4.28
2023-02-24T06:29:59.528Z,2.38
2023-02-24T06:32:29.652Z,1.80
2023-02-24T06:34:59.638Z,1.73
2023-02-24T06:37:30.291Z,1.33
2023-02-24T06:40:01.799Z,1.77
2023-02-24T06:42:32.108Z,1.90
2023-02-24T06:45:01.693Z,2.20
2023-02-24T06:47:32.924Z,2.00
2023-02-24T06:50:02.287Z,1.98
2023-02-24T06:52:32.109Z,1.80
2023-02-24T06:55:05.037Z,1.05
2023-02-24T06:57:34.773Z,2.10
2023-02-24T07:00:17.121Z,1.50
2023-02-24T07:02:46.796Z,1.50
2023-02-24T07:05:17.341Z,1.83
2023-02-24T07:07:47.405Z,1.60
2023-02-24T07:10:18.712Z,2.10
2023-02-24T07:12:48.379Z,1.50
2023-02-24T07:15:18.836Z,2.60
2023-02-24T07:17:49.187Z,2.90
2023-02-24T07:20:25.860Z,3.05
2023-02-24T07:22:55.666Z,2.58
2023-02-24T07:25:35.809Z,2.30
2023-02-24T07:30:37.590Z,2.65
2023-02-24T07:33:07.555Z,3.85
2023-02-24T07:35:37.116Z,2.80
2023-02-24T07:38:06.737Z,3.00
2023-02-24T07:40:37.528Z,2.75
2023-02-24T07:43:07.334Z,2.92
2023-02-24T07:45:37.254Z,4.13
2023-02-24T07:48:06.970Z,3.30
2023-02-24T07:50:38.248Z,3.20
2023-02-24T07:53:08.025Z,3.97
2023-02-24T07:55:39.250Z,3.33
2023-02-24T07:58:10.848Z,4.30
2023-02-24T08:00:59.751Z,3.03
2023-02-24T08:03:30.503Z,5.75
2023-02-24T08:06:15.929Z,4.97
2023-02-24T08:08:58.169Z,3.97
2023-02-24T08:11:36.116Z,4.18
2023-02-24T08:14:11.190Z,3.85
2023-02-24T08:16:41.191Z,4.97
2023-02-24T08:19:13.809Z,3.40
2023-02-24T08:21:47.735Z,5.75
2023-02-24T08:24:18.978Z,4.30
2023-02-24T08:27:04.655Z,3.53
2023-02-24T08:29:40.481Z,3.17
2023-02-24T08:32:10.828Z,3.25
2023-02-24T08:37:16.093Z,3.55
2023-02-24T08:39:47.021Z,3.05
2023-02-24T08:42:17.799Z,4.43
2023-02-24T08:44:50.697Z,3.33
2023-02-24T08:47:21.409Z,3.65
2023-02-24T08:52:23.339Z,3.33
2023-02-24T08:54:54.840Z,3.65
2023-02-24T08:57:26.372Z,3.83
2023-02-24T08:59:59.237Z,3.80
2023-02-24T09:02:37.348Z,3.85
2023-02-24T09:05:13.201Z,3.95
2023-02-24T09:07:44.732Z,6.00
2023-02-24T09:10:18.095Z,3.75
2023-02-24T09:12:49.513Z,3.65
2023-02-24T09:15:20.864Z,3.35
2023-02-24T09:20:48.566Z,2.22
2023-02-24T09:23:30.202Z,3.53
2023-02-24T09:26:11.380Z,2.75
2023-02-24T09:28:55.138Z,2.72
2023-02-24T09:31:41.102Z,2.63
2023-02-24T09:34:18.819Z,2.95
2023-02-24T09:37:01.733Z,2.88
2023-02-24T09:39:52.747Z,3.38
2023-02-24T09:42:34.957Z,2.35
2023-02-24T09:45:14.201Z,2.63
2023-02-24T09:47:57.495Z,1.70
2023-02-24T09:51:01.975Z,1.50
2023-02-24T09:53:41.498Z,1.35
2023-02-24T09:56:23.355Z,2.08
2023-02-24T09:58:59.052Z,1.45
2023-02-24T10:01:43.292Z,1.73
2023-02-24T10:04:49.451Z,1.90
2023-02-24T10:07:24.386Z,1.77
2023-02-24T10:10:18.920Z,1.23
2023-02-24T10:12:54.033Z,1.83
2023-02-24T10:15:59.589Z,2.22
2023-02-24T10:18:33.464Z,4.80
2023-02-24T10:21:15.839Z,1.95
2023-02-24T10:24:14.681Z,1.83
2023-02-24T10:27:00.822Z,2.00
2023-02-24T10:30:04.286Z,1.63
2023-02-24T10:32:47.362Z,2.15
2023-02-24T10:35:20.827Z,2.50
2023-02-24T10:37:50.838Z,2.20
2023-02-24T10:40:26.801Z,2.50
2023-02-24T10:43:10.982Z,1.58
2023-02-24T10:45:45.700Z,1.88
2023-02-24T10:48:42.029Z,1.58
2023-02-24T10:51:20.654Z,2.15
2023-02-24T10:54:10.395Z,1.70
2023-02-24T10:56:45.078Z,2.25
2023-02-24T10:59:42.234Z,3.78
2023-02-24T11:02:30.190Z,1.40
2023-02-24T11:05:27.335Z,1.40
2023-02-24T11:08:36.844Z,1.90
2023-02-24T11:11:26.119Z,1.60
2023-02-24T11:14:14.263Z,2.92
2023-02-24T11:17:07.012Z,2.58
2023-02-24T11:19:44.585Z,1.33
2023-02-24T11:22:16.887Z,2.00
2023-02-24T11:24:49.205Z,1.70
2023-02-24T11:27:22.545Z,1.50
2023-02-24T11:30:10.440Z,2.20
2023-02-24T11:32:53.473Z,2.20
2023-02-24T11:35:28.378Z,1.30
2023-02-24T11:38:06.198Z,1.83
2023-02-24T11:40:41.723Z,1.30
2023-02-24T11:43:18.635Z,1.67
2023-02-24T11:45:52.544Z,2.30
2023-02-24T11:48:26.023Z,1.63
2023-02-24T11:50:59.756Z,1.48
2023-02-24T11:53:35.884Z,1.35
2023-02-24T11:56:12.702Z,2.05
2023-02-24T11:58:47.811Z,1.40
2023-02-24T12:01:24.636Z,1.88
2023-02-24T12:04:03.199Z,1.85
2023-02-24T12:06:38.087Z,1.38
2023-02-24T12:09:14.635Z,1.85
2023-02-24T12:11:53.980Z,1.58
2023-02-24T12:14:30.285Z,1.20
2023-02-24T12:17:14.351Z,1.58
2023-02-24T12:19:54.836Z,1.40
2023-02-24T12:22:29.628Z,1.00
2023-02-24T12:24:59.565Z,1.33
2023-02-24T12:27:43.798Z,1.50
2023-02-24T12:30:49.044Z,1.77
2023-02-24T12:33:43.161Z,1.73
2023-02-24T12:36:25.425Z,1.70
2023-02-24T12:39:02.345Z,1.90
2023-02-24T12:41:41.443Z,1.58
2023-02-24T12:44:24.927Z,1.33
2023-02-24T12:47:00.327Z,2.85
2023-02-24T12:49:55.667Z,1.30
2023-02-24T12:52:33.715Z,2.78
2023-02-24T12:55:10.787Z,1.55
2023-02-24T12:57:50.463Z,1.40
2023-02-24T13:00:35.227Z,2.88
2023-02-24T13:03:17.521Z,1.45
2023-02-24T13:05:50.335Z,1.13
2023-02-24T13:08:33.498Z,2.42
2023-02-24T13:11:10.423Z,1.10
2023-02-24T13:13:49.098Z,1.33
2023-02-24T13:16:30.936Z,1.75
2023-02-24T13:19:09.483Z,1.40
2023-02-24T13:21:40.313Z,1.42
2023-02-24T13:24:23.614Z,1.65
2023-02-24T13:26:53.683Z,1.27
2023-02-24T13:29:23.524Z,0.88
2023-02-24T13:31:56.600Z,1.20
2023-02-24T13:34:35.472Z,2.20
2023-02-24T13:37:04.836Z,1.75
2023-02-24T13:39:37.349Z,1.75
2023-02-24T13:42:08.901Z,1.50
2023-02-24T13:44:49.204Z,1.90
2023-02-24T13:47:47.203Z,1.50
2023-02-24T13:50:25.580Z,1.55
2023-02-24T13:53:23.975Z,1.20
2023-02-24T13:56:18.005Z,3.45
2023-02-24T13:59:12.857Z,1.20
2023-02-24T14:01:52.458Z,1.55
2023-02-24T14:04:29.344Z,1.52
2023-02-24T14:07:03.552Z,3.35
2023-02-24T14:09:35.483Z,1.52
2023-02-24T14:12:10.245Z,1.52
2023-02-24T14:14:39.935Z,2.40
2023-02-24T14:17:24.691Z,2.13
2023-02-24T14:19:56.644Z,2.75
2023-02-24T14:22:26.326Z,1.75
2023-02-24T14:25:04.336Z,1.83
2023-02-24T14:27:34.660Z,1.50
2023-02-24T14:30:04.187Z,2.22
2023-02-24T14:32:35.593Z,2.20
2023-02-24T14:37:36.235Z,1.52
2023-02-24T14:40:06.235Z,1.40
2023-02-24T14:42:36.622Z,1.67
2023-02-24T14:45:20.079Z,2.07
2023-02-24T14:47:49.781Z,1.98
2023-02-24T14:50:25.832Z,2.08
2023-02-24T14:53:01.364Z,1.80
2023-02-24T14:55:34.604Z,1.85
2023-02-24T14:58:08.686Z,1.70
2023-02-24T15:00:42.886Z,3.35
2023-02-24T15:03:17.348Z,2.20
2023-02-24T15:05:51.484Z,2.17
2023-02-24T15:08:30.726Z,1.95
2023-02-24T15:11:00.291Z,2.05
2023-02-24T15:13:37.504Z,2.03
2023-02-24T15:16:14.349Z,2.10
2023-02-24T15:18:44.758Z,2.28
2023-02-24T15:21:24.413Z,3.10
2023-02-24T15:24:01.911Z,2.75
2023-02-24T15:26:33.252Z,2.05
2023-02-24T15:29:13.393Z,2.00
2023-02-24T15:31:49.240Z,2.22
2023-02-24T15:34:21.793Z,2.05
2023-02-24T15:36:55.156Z,2.85
2023-02-24T15:39:29.374Z,2.47
2023-02-24T15:42:09.532Z,2.08
2023-02-24T15:44:39.254Z,2.10
2023-02-24T15:47:24.133Z,2.20
2023-02-24T15:49:53.919Z,2.28
2023-02-24T15:52:27.749Z,2.13
2023-02-24T15:55:00.748Z,1.90
2023-02-24T15:57:31.894Z,2.50
2023-02-24T16:00:08.029Z,2.88
2023-02-24T16:02:37.282Z,2.03
2023-02-24T16:05:08.138Z,2.92
2023-02-24T16:07:40.289Z,2.43
2023-02-24T16:10:16.582Z,3.08
2023-02-24T16:12:50.510Z,2.50
2023-02-24T16:15:24.902Z,3.55
2023-02-24T16:17:54.924Z,2.85
2023-02-24T16:20:27.597Z,2.63
2023-02-24T16:23:00.207Z,2.78
2023-02-24T16:25:31.776Z,2.38
2023-02-24T16:28:01.661Z,2.70
2023-02-24T16:30:32.337Z,2.42
2023-02-24T16:33:03.488Z,2.67
2023-02-24T16:35:33.418Z,3.08
2023-02-24T16:38:04.728Z,3.30
2023-02-24T16:40:38.346Z,2.75
2023-02-24T16:43:07.667Z,2.80
2023-02-24T16:45:38.300Z,3.35
2023-02-24T16:48:11.115Z,3.55
2023-02-24T16:50:42.683Z,3.53
2023-02-24T16:55:45.410Z,3.47
2023-02-24T16:58:15.630Z,3.85
2023-02-24T17:00:47.382Z,3.15
2023-02-24T17:03:20.904Z,3.60
2023-02-24T17:05:51.311Z,2.83
2023-02-24T17:08:23.263Z,3.63
2023-02-24T17:10:54.092Z,3.45
2023-02-24T17:13:24.108Z,3.70
2023-02-24T17:15:55.596Z,3.20
2023-02-24T17:18:25.781Z,3.63
2023-02-24T17:20:56.504Z,3.50
2023-02-24T17:23:27.372Z,3.65
2023-02-24T17:26:00.526Z,3.72
2023-02-24T17:28:30.047Z,2.80
2023-02-24T17:30:59.811Z,3.05
2023-02-24T17:33:29.439Z,3.30
2023-02-24T17:35:59.072Z,3.10
2023-02-24T17:38:30.119Z,3.67
2023-02-24T17:41:02.179Z,4.55
2023-02-24T17:43:31.663Z,3.00
2023-02-24T17:46:06.989Z,3.08
2023-02-24T17:48:36.784Z,3.03
2023-02-24T17:51:06.685Z,3.38
2023-02-24T17:53:37.484Z,3.28
2023-02-24T17:56:08.958Z,3.63
2023-02-24T17:58:38.779Z,3.20
2023-02-24T18:01:08.521Z,3.97
2023-02-24T18:03:38.352Z,3.90
2023-02-24T18:06:10.505Z,3.22
2023-02-24T18:08:42.047Z,3.60
2023-02-24T18:11:17.317Z,3.85
2023-02-24T18:13:48.829Z,4.43
2023-02-24T18:16:19.302Z,3.60
2023-02-24T18:18:49.025Z,3.75
2023-02-24T18:21:18.862Z,4.45
2023-02-24T18:23:50.435Z,3.72
2023-02-24T18:26:22.656Z,4.18
2023-02-24T18:28:54.189Z,4.65
2023-02-24T18:31:25.376Z,3.75
2023-02-24T18:33:55.464Z,4.97
2023-02-24T18:36:25.907Z,4.35
2023-02-24T18:38:59.364Z,4.55
2023-02-24T18:41:29.617Z,3.90
2023-02-24T18:43:59.436Z,4.22
2023-02-24T18:46:29.784Z,4.13
2023-02-24T18:48:59.654Z,4.80
2023-02-24T18:51:29.963Z,4.78
2023-02-24T18:54:01.884Z,4.32
2023-02-24T18:56:33.487Z,4.95
2023-02-24T19:01:35.807Z,5.35
2023-02-24T19:04:06.904Z,5.50
2023-02-24T19:06:38.634Z,5.40
2023-02-24T19:09:11.620Z,5.13
2023-02-24T19:11:42.390Z,5.35
2023-02-24T19:14:14.197Z,4.78
2023-02-24T19:16:45.872Z,5.25
2023-02-24T19:19:16.676Z,5.70
2023-02-24T19:21:48.568Z,5.82
2023-02-24T19:24:19.881Z,5.28
2023-02-24T19:26:51.412Z,5.35
2023-02-24T19:29:22.387Z,5.53
2023-02-24T19:31:54.391Z,5.60
2023-02-24T19:34:23.955Z,6.50
2023-02-24T19:36:53.662Z,5.40
2023-02-24T19:39:24.439Z,5.22
2023-02-24T19:41:55.077Z,7.38
2023-02-24T19:44:24.403Z,5.57
2023-02-24T19:46:54.220Z,6.07
2023-02-24T19:49:23.601Z,5.95
2023-02-24T19:51:56.500Z,5.13
2023-02-24T19:54:28.226Z,5.63
2023-02-24T19:56:58.758Z,5.68
2023-02-24T19:59:28.324Z,5.23
2023-02-24T20:01:58.120Z,6.22
2023-02-24T20:04:28.095Z,6.55
2023-02-24T20:06:57.837Z,6.30
2023-02-24T20:09:28.995Z,6.90
2023-02-24T20:12:00.984Z,4.97
2023-02-24T20:14:31.491Z,4.80
2023-02-24T20:17:01.233Z,5.60
2023-02-24T20:19:33.191Z,5.68
2023-02-24T20:22:04.747Z,5.70
2023-02-24T20:24:37.098Z,5.60
2023-02-24T20:27:06.983Z,6.30
2023-02-24T20:29:36.674Z,5.85
2023-02-24T20:32:06.894Z,5.78
2023-02-24T20:34:38.945Z,6.47
2023-02-24T20:37:08.969Z,5.55
2023-02-24T20:39:40.152Z,5.05
2023-02-24T20:42:10.061Z,4.53
2023-02-24T20:44:39.306Z,5.65
2023-02-24T20:47:09.212Z,5.38
2023-02-24T20:49:39.588Z,5.25
2023-02-24T20:52:09.300Z,6.00
2023-02-24T20:54:40.148Z,4.75
2023-02-24T20:57:09.889Z,6.20
2023-02-24T20:59:49.229Z,5.40
2023-02-24T21:02:21.483Z,5.45
2023-02-24T21:04:51.211Z,5.25
2023-02-24T21:07:20.981Z,4.70
2023-02-24T21:09:52.780Z,6.03
2023-02-24T21:12:22.598Z,5.55
2023-02-24T21:14:52.121Z,5.13
2023-02-24T21:17:21.996Z,5.18
2023-02-24T21:19:51.596Z,5.07
2023-02-24T21:22:21.282Z,5.57
2023-02-24T21:24:52.295Z,4.32
2023-02-24T21:27:22.512Z,5.32
2023-02-24T21:29:52.415Z,5.60
2023-02-24T21:32:22.610Z,4.75
2023-02-24T21:34:52.827Z,5.50
2023-02-24T21:37:22.551Z,5.85
2023-02-24T21:39:53.458Z,5.13
2023-02-24T21:42:24.110Z,5.50
2023-02-24T21:44:53.487Z,5.65
2023-02-24T21:47:23.613Z,6.53
2023-02-24T21:49:54.109Z,5.80
2023-02-24T21:52:25.196Z,5.13
2023-02-24T21:54:55.993Z,5.35
2023-02-24T21:57:26.303Z,6.10
2023-02-24T21:59:55.583Z,5.97
2023-02-24T22:02:25.492Z,5.93
2023-02-24T22:04:55.082Z,5.60
2023-02-24T22:07:25.130Z,5.80
2023-02-24T22:09:56.518Z,4.97
2023-02-24T22:12:26.150Z,5.40
2023-02-24T22:14:55.386Z,5.75
2023-02-24T22:17:25.912Z,5.25
2023-02-24T22:19:56.488Z,5.32
2023-02-24T22:22:28.250Z,4.93
2023-02-24T22:24:59.372Z,5.53
2023-02-24T22:27:30.641Z,5.30
2023-02-24T22:30:00.218Z,5.55
2023-02-24T22:32:30.672Z,4.72
2023-02-24T22:35:00.190Z,5.43
2023-02-24T22:37:30.073Z,5.28
2023-02-24T22:40:01.051Z,5.25
2023-02-24T22:42:30.711Z,5.00
2023-02-24T22:45:00.528Z,5.38
2023-02-24T22:47:31.647Z,4.97
2023-02-24T22:50:00.919Z,5.00
2023-02-24T22:52:30.551Z,5.03
2023-02-24T22:55:01.406Z,6.22
2023-02-24T22:57:34.281Z,5.70
2023-02-24T23:00:09.843Z,5.63
2023-02-24T23:02:39.524Z,6.13
2023-02-24T23:05:09.267Z,5.50
2023-02-24T23:07:39.136Z,5.65
2023-02-24T23:10:11.407Z,5.55
2023-02-24T23:12:41.039Z,6.40
2023-02-24T23:15:11.690Z,5.47
2023-02-24T23:17:41.797Z,5.80
2023-02-24T23:20:13.849Z,6.40
2023-02-24T23:22:44.000Z,6.13
2023-02-24T23:25:15.344Z,5.68
2023-02-24T23:27:45.185Z,7.22
2023-02-24T23:30:15.163Z,6.28
2023-02-24T23:32:45.899Z,6.50
2023-02-24T23:35:15.568Z,6.20
2023-02-24T23:37:45.199Z,6.10
2023-02-24T23:40:16.528Z,7.07
2023-02-24T23:42:46.536Z,6.28
2023-02-24T23:45:15.859Z,6.60
2023-02-24T23:47:46.314Z,6.32
2023-02-24T23:50:15.713Z,6.63
2023-02-24T23:52:45.367Z,7.10
2023-02-24T23:55:16.589Z,7.38
2023-02-24T23:57:46.205Z,6.22
